Time,TemperatureF,DewpointF,PressureIn,WindDirection,WindDirectionDegrees,WindSpeedMPH,WindSpeedGustMPH,Humidity,HourlyPrecipIn,Conditions,Clouds,dailyrainin,SoftwareType,DateUTC
2013-09-29 13:44:00,87.6,83.3,30.05,SE,135,0.0,11.9,87,0.00,,,0.00,WUHU21623XXSP,2013-09-29 18:44:00,
2013-09-29 13:49:00,88.2,83.3,30.05,SE,135,12.5,12.5,87,0.00,,,0.00,WUHU21623XXSP,2013-09-29 18:49:00,
2013-09-29 13:54:00,88.5,83.8,30.05,SE,135,17.0,17.0,86,0.00,,,0.00,WUHU21623XXSP,2013-09-29 18:54:00,
2013-09-29 13:59:00,88.5,83.8,30.05,SE,135,17.0,17.0,86,0.00,,,0.00,WUHU21623XXSP,2013-09-29 18:59:00,
2013-09-29 14:10:00,89.8,84.3,30.04,NE,45,13.9,13.9,84,0.00,,,0.00,WUHU21623XXSP,2013-09-29 19:10:00,
2013-09-29 14:15:00,90.3,85.2,30.04,NE,45,17.2,17.2,85,0.00,,,0.00,WUHU21623XXSP,2013-09-29 19:15:00,
2013-09-29 14:20:00,90.7,85.6,30.04,SE,135,13.6,17.2,85,0.00,,,0.00,WUHU21623XXSP,2013-09-29 19:20:00,
2013-09-29 14:25:00,90.9,85.4,30.04,SE,135,12.8,13.6,84,0.00,,,0.00,WUHU21623XXSP,2013-09-29 19:25:00,
2013-09-29 14:30:00,91.0,83.2,30.04,NNE,22,16.1,16.1,78,0.00,,,0.00,WUHU21623XXSP,2013-09-29 19:30:00,
2013-09-29 14:35:00,90.3,84.4,30.04,NNE,22,0.0,16.1,83,0.00,,,0.00,WUHU21623XXSP,2013-09-29 19:35:00,
2013-09-29 14:40:00,89.8,85.2,30.04,NNE,22,0.0,0.0,86,0.00,,,0.00,WUHU21623XXSP,2013-09-29 19:40:00,
2013-09-29 14:45:00,90.3,84.7,30.03,NNE,22,0.0,0.0,84,0.00,,,0.00,WUHU21623XXSP,2013-09-29 19:45:00,
2013-09-29 14:50:00,88.5,84.2,30.03,North,0,0.0,0.0,87,0.00,,,0.00,WUHU21623XXSP,2013-09-29 19:50:00,
2013-09-29 14:55:00,87.3,79.2,30.03,North,0,6.3,6.3,77,0.00,,,0.00,WUHU21623XXSP,2013-09-29 19:55:00,
2013-09-29 15:00:00,85.6,76.9,30.03,NNE,22,0.0,6.3,78,0.00,,,0.00,WUHU21623XXSP,2013-09-29 20:00:00,
2013-09-29 15:05:00,85.8,81.1,30.03,NW,315,0.0,0.0,86,0.00,,,0.00,WUHU21623XXSP,2013-09-29 20:05:00,
2013-09-29 15:10:00,87.4,82.0,30.03,NNW,337,17.4,17.4,84,0.00,,,0.00,WUHU21623XXSP,2013-09-29 20:10:00,
2013-09-29 15:15:00,88.9,83.4,30.02,North,0,11.6,17.4,84,0.00,,,0.00,WUHU21623XXSP,2013-09-29 20:15:00,
2013-09-29 15:20:00,89.8,83.9,30.02,WSW,247,17.9,17.9,83,0.00,,,0.00,WUHU21623XXSP,2013-09-29 20:20:00,
2013-09-29 15:25:00,90.1,82.7,30.02,WSW,247,11.9,18.8,79,0.00,,,0.00,WUHU21623XXSP,2013-09-29 20:25:00,
2013-09-29 15:30:00,90.0,80.9,30.02,North,0,14.5,18.8,75,0.00,,,0.00,WUHU21623XXSP,2013-09-29 20:30:00,
2013-09-29 15:35:00,88.0,81.1,30.02,North,0,0.0,14.5,80,0.00,,,0.00,WUHU21623XXSP,2013-09-29 20:35:00,
2013-09-29 15:40:00,84.7,76.7,30.02,North,0,15.7,15.7,77,0.00,,,0.00,WUHU21623XXSP,2013-09-29 20:40:00,
2013-09-29 15:45:00,82.2,77.6,30.02,North,0,0.0,15.7,86,0.00,,,0.00,WUHU21623XXSP,2013-09-29 20:45:00,
2013-09-29 15:50:00,80.1,76.5,30.02,North,0,0.0,15.7,89,0.00,,,0.00,WUHU21623XXSP,2013-09-29 20:50:00,
2013-09-29 15:55:00,79.0,76.2,30.02,North,0,0.0,0.0,91,0.00,,,0.00,WUHU21623XXSP,2013-09-29 20:55:00,
2013-09-29 16:00:00,80.2,75.5,30.01,North,0,0.0,0.0,88,0.00,,,0.00,WUHU21623XXSP,2013-09-29 21:00:00,
2013-09-29 16:05:00,82.8,78.1,30.01,North,0,0.0,0.0,85,0.00,,,0.00,WUHU21623XXSP,2013-09-29 21:05:00,
2013-09-29 16:10:00,84.6,79.5,30.01,WSW,247,13.0,13.0,85,0.00,,,0.00,WUHU21623XXSP,2013-09-29 21:10:00,
2013-09-29 16:15:00,85.5,80.1,30.01,ENE,67,20.4,20.4,84,0.00,,,0.00,WUHU21623XXSP,2013-09-29 21:15:00,
2013-09-29 16:20:00,86.2,81.1,30.01,ENE,67,15.7,20.4,86,0.00,,,0.00,WUHU21623XXSP,2013-09-29 21:20:00,
2013-09-29 16:25:00,86.2,81.1,30.01,ENE,67,9.6,16.6,85,0.00,,,0.00,WUHU21623XXSP,2013-09-29 21:25:00,
2013-09-29 16:30:00,86.2,81.5,30.01,WSW,247,0.0,15.0,86,0.00,,,0.00,WUHU21623XXSP,2013-09-29 21:30:00,
2013-09-29 16:35:00,85.6,81.0,30.00,WSW,247,14.5,17.0,86,0.00,,,0.00,WUHU21623XXSP,2013-09-29 21:35:00,
2013-09-29 16:40:00,85.6,81.3,30.00,WSW,247,15.7,17.0,87,0.00,,,0.00,WUHU21623XXSP,2013-09-29 21:40:00,
2013-09-29 16:45:00,85.3,81.5,30.00,WSW,247,0.0,15.7,88,0.00,,,0.00,WUHU21623XXSP,2013-09-29 21:45:00,
2013-09-29 16:50:00,85.3,81.7,30.00,WSW,247,11.9,21.0,89,0.00,,,0.00,WUHU21623XXSP,2013-09-29 21:50:00,
2013-09-29 16:55:00,84.9,79.2,30.00,WSW,247,16.6,21.0,83,0.00,,,0.00,WUHU21623XXSP,2013-09-29 21:55:00,
2013-09-29 17:00:00,84.0,77.9,30.00,WSW,247,16.6,16.6,85,0.00,,,0.00,WUHU21623XXSP,2013-09-29 22:00:00,
2013-09-29 17:05:00,83.5,78.5,30.00,WSW,247,12.8,16.6,85,0.00,,,0.00,WUHU21623XXSP,2013-09-29 22:05:00,
2013-09-29 17:10:00,83.1,79.0,30.00,WSW,247,12.8,14.5,89,0.00,,,0.00,WUHU21623XXSP,2013-09-29 22:10:00,
2013-09-29 17:15:00,81.1,77.9,30.00,WSW,247,0.0,12.8,90,0.00,,,0.00,WUHU21623XXSP,2013-09-29 22:15:00,
2013-09-29 17:20:00,80.1,76.9,30.00,WSW,247,16.3,16.3,90,0.00,,,0.00,WUHU21623XXSP,2013-09-29 22:20:00,
2013-09-29 17:25:00,79.0,76.4,29.99,WSW,247,16.3,16.3,91,0.00,,,0.00,WUHU21623XXSP,2013-09-29 22:25:00,
2013-09-29 17:30:00,78.1,75.6,29.99,NNE,22,0.0,16.3,92,0.00,,,0.00,WUHU21623XXSP,2013-09-29 22:30:00,
2013-09-29 17:35:00,77.2,75.0,30.00,NNE,22,0.0,0.0,93,0.00,,,0.00,WUHU21623XXSP,2013-09-29 22:35:00,
2013-09-29 17:40:00,76.6,74.5,30.00,NNE,22,0.0,0.0,93,0.00,,,0.00,WUHU21623XXSP,2013-09-29 22:40:00,
2013-09-29 17:45:00,75.9,73.8,29.99,NNE,22,0.0,0.0,93,0.00,,,0.00,WUHU21623XXSP,2013-09-29 22:45:00,
2013-09-29 17:50:00,75.4,72.9,30.00,NNE,22,0.0,0.0,92,0.00,,,0.00,WUHU21623XXSP,2013-09-29 22:50:00,
2013-09-29 17:56:00,75.0,72.0,30.00,NNE,22,0.0,0.0,90,0.00,,,0.00,WUHU21623XXSP,2013-09-29 22:56:00,
2013-09-29 18:01:00,74.8,72.4,30.00,NNE,22,0.0,0.0,92,0.00,,,0.00,WUHU21623XXSP,2013-09-29 23:01:00,
2013-09-29 18:06:00,74.3,72.2,30.00,NNE,22,0.0,0.0,93,0.00,,,0.00,WUHU21623XXSP,2013-09-29 23:06:00,
2013-09-29 18:11:00,73.9,71.8,30.00,NNE,22,0.0,0.0,93,0.00,,,0.00,WUHU21623XXSP,2013-09-29 23:11:00,
2013-09-29 18:16:00,73.2,71.4,30.00,NNE,22,0.0,0.0,94,0.00,,,0.00,WUHU21623XXSP,2013-09-29 23:16:00,
2013-09-29 18:21:00,73.0,71.2,30.00,NNE,22,0.0,0.0,94,0.00,,,0.00,WUHU21623XXSP,2013-09-29 23:21:00,
2013-09-29 18:26:00,72.5,70.7,30.00,NNE,22,0.0,0.0,94,0.00,,,0.00,WUHU21623XXSP,2013-09-29 23:26:00,
2013-09-29 18:31:00,72.1,70.3,29.99,NNE,22,0.0,0.0,94,0.00,,,0.00,WUHU21623XXSP,2013-09-29 23:31:00,
2013-09-29 18:36:00,71.8,69.9,29.99,NNE,22,0.0,0.0,94,0.00,,,0.00,WUHU21623XXSP,2013-09-29 23:36:00,
2013-09-29 18:41:00,71.2,69.6,29.99,NNE,22,0.0,0.0,94,0.00,,,0.00,WUHU21623XXSP,2013-09-29 23:41:00,
2013-09-29 18:46:00,70.9,69.0,29.98,NNE,22,0.0,0.0,94,0.00,,,0.00,WUHU21623XXSP,2013-09-29 23:46:00,
2013-09-29 18:51:00,70.5,68.7,29.99,NNE,22,0.0,0.0,94,0.00,,,0.00,WUHU21623XXSP,2013-09-29 23:51:00,
2013-09-29 18:56:00,70.0,68.1,29.99,NNE,22,0.0,0.0,94,0.00,,,0.00,WUHU21623XXSP,2013-09-29 23:56:00,
2013-09-29 19:01:00,69.6,67.8,30.00,NNE,22,0.0,0.0,94,0.00,,,0.00,WUHU21623XXSP,2013-09-30 00:01:00,
2013-09-29 19:06:00,69.4,67.9,30.00,NNE,22,0.0,0.0,95,0.00,,,0.00,WUHU21623XXSP,2013-09-30 00:06:00,
2013-09-29 19:11:00,68.7,67.2,30.00,NNE,22,0.0,0.0,95,0.00,,,0.00,WUHU21623XXSP,2013-09-30 00:11:00,
2013-09-29 19:16:00,68.4,66.5,30.00,NNE,22,0.0,0.0,94,0.00,,,0.00,WUHU21623XXSP,2013-09-30 00:16:00,
2013-09-29 19:21:00,68.2,66.3,30.00,NNE,22,0.0,0.0,94,0.00,,,0.00,WUHU21623XXSP,2013-09-30 00:21:00,
2013-09-29 19:26:00,67.6,65.8,30.00,NNE,22,0.0,0.0,94,0.00,,,0.00,WUHU21623XXSP,2013-09-30 00:26:00,
2013-09-29 19:31:00,67.5,65.6,30.00,NNE,22,0.0,0.0,94,0.00,,,0.00,WUHU21623XXSP,2013-09-30 00:31:00,
2013-09-29 19:36:00,67.3,65.4,30.00,NNE,22,0.0,0.0,94,0.00,,,0.00,WUHU21623XXSP,2013-09-30 00:36:00,
2013-09-29 19:41:00,66.9,65.1,30.00,NNE,22,0.0,0.0,94,0.00,,,0.00,WUHU21623XXSP,2013-09-30 00:41:00,
2013-09-29 19:46:00,66.7,64.9,30.00,NNE,22,0.0,0.0,94,0.00,,,0.00,WUHU21623XXSP,2013-09-30 00:46:00,
2013-09-29 19:51:00,66.7,64.9,30.00,NNE,22,0.0,0.0,94,0.00,,,0.00,WUHU21623XXSP,2013-09-30 00:51:00,
2013-09-29 19:56:00,66.6,64.7,30.00,NNE,22,0.0,0.0,94,0.00,,,0.00,WUHU21623XXSP,2013-09-30 00:56:00,
2013-09-29 20:01:00,66.6,64.7,30.00,NNE,22,0.0,0.0,94,0.00,,,0.00,WUHU21623XXSP,2013-09-30 01:01:00,
2013-09-29 20:06:00,66.4,64.5,30.00,NNE,22,0.0,0.0,94,0.00,,,0.00,WUHU21623XXSP,2013-09-30 01:06:00,
2013-09-29 20:11:00,66.0,64.2,30.01,NNE,22,0.0,0.0,94,0.00,,,0.00,WUHU21623XXSP,2013-09-30 01:11:00,
2013-09-29 20:16:00,65.7,64.1,30.00,NNE,22,0.0,0.0,95,0.00,,,0.00,WUHU21623XXSP,2013-09-30 01:16:00,
2013-09-29 20:21:00,65.5,64.0,30.01,NNE,22,0.0,0.0,95,0.00,,,0.00,WUHU21623XXSP,2013-09-30 01:21:00,
2013-09-29 20:26:00,64.9,63.5,30.01,NNE,22,0.0,0.0,95,0.00,,,0.00,WUHU21623XXSP,2013-09-30 01:26:00,
2013-09-29 20:31:00,64.6,63.1,30.00,NNE,22,0.0,0.0,95,0.00,,,0.00,WUHU21623XXSP,2013-09-30 01:31:00,
2013-09-29 20:37:00,64.2,62.8,30.01,NNE,22,0.0,0.0,95,0.00,,,0.00,WUHU21623XXSP,2013-09-30 01:37:00,
2013-09-29 20:42:00,64.0,62.6,30.01,NNE,22,0.0,0.0,95,0.00,,,0.00,WUHU21623XXSP,2013-09-30 01:42:00,
2013-09-29 20:47:00,64.0,62.6,30.01,NNE,22,0.0,0.0,95,0.00,,,0.00,WUHU21623XXSP,2013-09-30 01:47:00,
2013-09-29 20:52:00,64.0,62.6,30.00,NNE,22,0.0,0.0,95,0.00,,,0.00,WUHU21623XXSP,2013-09-30 01:52:00,
2013-09-29 20:57:00,63.7,62.2,30.00,NNE,22,0.0,0.0,95,0.00,,,0.00,WUHU21623XXSP,2013-09-30 01:57:00,
2013-09-29 21:02:00,63.7,62.2,30.00,NNE,22,0.0,0.0,95,0.00,,,0.00,WUHU21623XXSP,2013-09-30 02:02:00,
2013-09-29 21:07:00,63.3,61.9,30.00,NNE,22,0.0,0.0,95,0.00,,,0.00,WUHU21623XXSP,2013-09-30 02:07:00,
2013-09-29 21:12:00,63.1,61.7,30.00,NNE,22,0.0,0.0,95,0.00,,,0.00,WUHU21623XXSP,2013-09-30 02:12:00,
2013-09-29 21:17:00,63.1,61.7,30.01,NNE,22,0.0,0.0,95,0.00,,,0.00,WUHU21623XXSP,2013-09-30 02:17:00,
2013-09-29 21:22:00,62.8,61.3,30.01,NNE,22,0.0,0.0,95,0.00,,,0.00,WUHU21623XXSP,2013-09-30 02:22:00,
2013-09-29 21:27:00,62.6,61.2,30.01,NNE,22,0.0,0.0,95,0.00,,,0.00,WUHU21623XXSP,2013-09-30 02:27:00,
2013-09-29 21:32:00,62.4,61.0,30.01,NNE,22,0.0,0.0,95,0.00,,,0.00,WUHU21623XXSP,2013-09-30 02:32:00,
2013-09-29 21:37:00,62.4,61.0,30.01,NNE,22,0.0,0.0,95,0.00,,,0.00,WUHU21623XXSP,2013-09-30 02:37:00,
2013-09-29 21:42:00,62.4,61.0,30.01,NNE,22,0.0,0.0,95,0.00,,,0.00,WUHU21623XXSP,2013-09-30 02:42:00,
2013-09-29 21:47:00,62.4,61.0,30.01,NNE,22,0.0,0.0,95,0.00,,,0.00,WUHU21623XXSP,2013-09-30 02:47:00,
2013-09-29 21:52:00,62.4,61.0,30.01,NNE,22,0.0,0.0,95,0.00,,,0.00,WUHU21623XXSP,2013-09-30 02:52:00,
2013-09-29 21:57:00,62.4,61.0,30.01,NNE,22,0.0,0.0,95,0.00,,,0.00,WUHU21623XXSP,2013-09-30 02:57:00,
2013-09-29 22:02:00,62.4,61.0,30.01,NNE,22,0.0,0.0,95,0.00,,,0.00,WUHU21623XXSP,2013-09-30 03:02:00,
2013-09-29 22:07:00,62.4,61.0,30.01,NNE,22,0.0,0.0,95,0.00,,,0.00,WUHU21623XXSP,2013-09-30 03:07:00,
2013-09-29 22:12:00,62.4,61.0,30.01,NNE,22,0.0,0.0,95,0.00,,,0.00,WUHU21623XXSP,2013-09-30 03:12:00,
2013-09-29 22:17:00,62.2,60.8,30.00,NNE,22,0.0,0.0,95,0.00,,,0.00,WUHU21623XXSP,2013-09-30 03:17:00,
2013-09-29 22:22:00,62.1,60.6,30.01,NNE,22,0.0,0.0,95,0.00,,,0.00,WUHU21623XXSP,2013-09-30 03:22:00,
2013-09-29 22:27:00,61.9,60.4,30.01,NNE,22,0.0,0.0,95,0.00,,,0.00,WUHU21623XXSP,2013-09-30 03:27:00,
2013-09-29 22:32:00,61.9,60.4,30.02,NNE,22,0.0,0.0,95,0.00,,,0.00,WUHU21623XXSP,2013-09-30 03:32:00,
2013-09-29 22:37:00,61.9,60.4,30.02,NNE,22,0.0,0.0,95,0.00,,,0.00,WUHU21623XXSP,2013-09-30 03:37:00,
2013-09-29 22:42:00,61.9,60.4,30.02,NNE,22,0.0,0.0,95,0.00,,,0.00,WUHU21623XXSP,2013-09-30 03:42:00,
2013-09-29 22:47:00,61.7,60.3,30.01,NNE,22,0.0,0.0,95,0.00,,,0.00,WUHU21623XXSP,2013-09-30 03:47:00,
2013-09-29 22:52:00,61.5,60.1,30.01,NNE,22,0.0,0.0,95,0.00,,,0.00,WUHU21623XXSP,2013-09-30 03:52:00,
2013-09-29 22:57:00,61.3,59.9,30.01,NNE,22,0.0,0.0,95,0.00,,,0.00,WUHU21623XXSP,2013-09-30 03:57:00,
2013-09-29 23:02:00,61.2,59.7,30.01,NNE,22,0.0,0.0,95,0.00,,,0.00,WUHU21623XXSP,2013-09-30 04:02:00,
2013-09-29 23:07:00,61.0,59.5,30.01,NNE,22,0.0,0.0,95,0.00,,,0.00,WUHU21623XXSP,2013-09-30 04:07:00,
2013-09-29 23:12:00,60.6,59.2,30.01,NNE,22,0.0,0.0,95,0.00,,,0.00,WUHU21623XXSP,2013-09-30 04:12:00,
2013-09-29 23:17:00,60.6,59.2,30.00,NNE,22,0.0,0.0,95,0.00,,,0.00,WUHU21623XXSP,2013-09-30 04:17:00,
2013-09-29 23:22:00,60.4,59.0,30.00,NNE,22,0.0,0.0,95,0.00,,,0.00,WUHU21623XXSP,2013-09-30 04:22:00,
2013-09-29 23:27:00,60.4,59.0,30.00,NNE,22,0.0,0.0,95,0.00,,,0.00,WUHU21623XXSP,2013-09-30 04:27:00,
2013-09-29 23:32:00,60.1,58.6,30.01,NNE,22,0.0,0.0,95,0.00,,,0.00,WUHU21623XXSP,2013-09-30 04:32:00,
2013-09-29 23:37:00,59.9,58.5,30.00,NNE,22,0.0,0.0,95,0.00,,,0.00,WUHU21623XXSP,2013-09-30 04:37:00,
2013-09-29 23:42:00,59.7,58.3,30.01,NNE,22,0.0,0.0,95,0.00,,,0.00,WUHU21623XXSP,2013-09-30 04:42:00,
2013-09-29 23:47:00,59.5,58.1,30.01,NNE,22,0.0,0.0,95,0.00,,,0.00,WUHU21623XXSP,2013-09-30 04:47:00,
2013-09-29 23:52:00,59.5,58.1,30.01,NNE,22,0.0,0.0,95,0.00,,,0.00,WUHU21623XXSP,2013-09-30 04:52:00,
2013-09-29 23:57:00,59.4,57.9,30.01,NNE,22,0.0,0.0,95,0.00,,,0.00,WUHU21623XXSP,2013-09-30 04:57:00,